createdAt,value
2023-05-29T00:01:32.640Z,2.10
2023-05-29T00:04:35.173Z,1.90
2023-05-29T00:07:37.637Z,2.03
2023-05-29T00:10:40.004Z,2.30
2023-05-29T00:13:42.765Z,2.10
2023-05-29T00:16:45.339Z,2.22
2023-05-29T00:19:48.071Z,2.17
2023-05-29T00:22:50.760Z,2.33
2023-05-29T00:25:53.253Z,2.47
2023-05-29T00:28:55.854Z,2.60
2023-05-29T00:31:58.380Z,1.90
2023-05-29T00:35:00.917Z,1.95
2023-05-29T00:38:03.381Z,2.05
2023-05-29T00:41:06.100Z,2.63
2023-05-29T00:44:08.627Z,2.28
2023-05-29T00:47:11.494Z,2.42
2023-05-29T00:50:15.217Z,2.60
2023-05-29T00:53:17.874Z,2.30
2023-05-29T00:56:21.957Z,2.67
2023-05-29T00:59:25.627Z,2.80
2023-05-29T01:02:31.113Z,2.50
2023-05-29T01:05:35.939Z,2.50
2023-05-29T01:08:38.831Z,2.47
2023-05-29T01:12:02.106Z,2.17
2023-05-29T01:15:12.179Z,2.65
2023-05-29T01:18:19.015Z,2.22
2023-05-29T01:21:42.759Z,2.50
2023-05-29T01:24:56.213Z,2.15
2023-05-29T01:28:03.852Z,2.88
2023-05-29T01:31:08.283Z,2.38
2023-05-29T01:34:10.868Z,2.57
2023-05-29T01:37:14.141Z,2.25
2023-05-29T01:40:17.055Z,2.33
2023-05-29T01:43:21.347Z,2.60
2023-05-29T01:46:28.599Z,2.47
2023-05-29T01:49:32.645Z,2.58
2023-05-29T01:52:37.079Z,2.65
2023-05-29T01:55:39.516Z,2.40
2023-05-29T01:58:42.286Z,2.40
2023-05-29T02:01:44.953Z,2.58
2023-05-29T02:04:47.317Z,2.60
2023-05-29T02:07:49.979Z,2.47
2023-05-29T02:10:52.605Z,2.50
2023-05-29T02:13:55.557Z,2.80
2023-05-29T02:16:58.446Z,2.22
2023-05-29T02:20:00.989Z,2.50
2023-05-29T02:23:03.498Z,2.78
2023-05-29T02:26:06.323Z,2.65
2023-05-29T02:29:09.250Z,2.33
2023-05-29T02:32:11.811Z,2.65
2023-05-29T02:35:18.371Z,2.50
2023-05-29T02:38:20.844Z,2.67
2023-05-29T02:41:23.318Z,2.70
2023-05-29T02:44:27.039Z,2.50
2023-05-29T02:47:29.548Z,2.33
2023-05-29T02:50:33.325Z,2.22
2023-05-29T02:53:35.821Z,3.13
2023-05-29T02:56:38.894Z,3.05
2023-05-29T02:59:41.838Z,2.38
2023-05-29T03:02:44.373Z,2.33
2023-05-29T03:05:48.262Z,2.10
2023-05-29T03:08:50.819Z,2.15
2023-05-29T03:11:53.901Z,2.20
2023-05-29T03:14:57.620Z,2.53
2023-05-29T03:18:00.680Z,2.20
2023-05-29T03:21:06.067Z,2.10
2023-05-29T03:24:10.041Z,2.70
2023-05-29T03:27:13.654Z,2.38
2023-05-29T03:30:17.177Z,2.30
2023-05-29T03:33:19.606Z,2.33
2023-05-29T03:36:54.391Z,2.43
2023-05-29T03:39:57.289Z,2.25
2023-05-29T03:43:00.356Z,2.70
2023-05-29T03:46:03.256Z,2.57
2023-05-29T03:49:08.469Z,2.17
2023-05-29T03:52:12.132Z,2.72
2023-05-29T03:55:15.862Z,2.67
2023-05-29T03:58:19.090Z,2.30
2023-05-29T04:01:21.661Z,2.05
2023-05-29T04:04:24.172Z,2.47
2023-05-29T04:07:27.042Z,2.20
2023-05-29T04:10:29.458Z,2.20
2023-05-29T04:13:31.874Z,2.42
2023-05-29T04:16:34.319Z,2.03
2023-05-29T04:19:36.775Z,2.17
2023-05-29T04:22:39.442Z,2.53
2023-05-29T04:25:42.007Z,2.10
2023-05-29T04:28:44.853Z,2.78
2023-05-29T04:31:48.423Z,4.00
2023-05-29T04:34:52.300Z,2.50
2023-05-29T04:37:55.175Z,2.10
2023-05-29T04:41:01.114Z,2.45
2023-05-29T04:44:05.399Z,2.65
2023-05-29T04:47:17.052Z,2.57
2023-05-29T04:50:19.480Z,2.35
2023-05-29T04:53:22.060Z,3.05
2023-05-29T04:56:24.777Z,2.78
2023-05-29T04:59:27.288Z,2.63
2023-05-29T05:02:30.419Z,3.40
2023-05-29T05:05:34.361Z,3.40
2023-05-29T05:08:38.099Z,3.40
2023-05-29T05:11:40.788Z,4.22
2023-05-29T05:14:44.195Z,2.97
2023-05-29T05:17:47.820Z,2.60
2023-05-29T05:20:50.457Z,2.47
2023-05-29T05:23:58.369Z,2.40
2023-05-29T05:27:02.771Z,2.72
2023-05-29T05:30:05.676Z,3.33
2023-05-29T05:33:08.728Z,2.10
2023-05-29T05:36:11.791Z,2.97
2023-05-29T05:39:16.253Z,2.70
2023-05-29T05:42:22.419Z,2.83
2023-05-29T05:45:29.998Z,2.20
2023-05-29T05:48:32.475Z,3.00
2023-05-29T05:51:34.921Z,2.45
2023-05-29T05:54:37.390Z,2.83
2023-05-29T05:57:39.996Z,3.35
2023-05-29T06:00:43.771Z,3.17
2023-05-29T06:03:46.546Z,2.70
2023-05-29T06:06:49.188Z,2.67
2023-05-29T06:09:51.590Z,2.70
2023-05-29T06:12:54.569Z,2.70
2023-05-29T06:16:03.056Z,2.50
2023-05-29T06:19:05.624Z,2.70
2023-05-29T06:22:19.657Z,3.00
2023-05-29T06:25:22.556Z,2.60
2023-05-29T06:28:25.480Z,3.13
2023-05-29T06:31:28.159Z,3.22
2023-05-29T06:34:30.753Z,2.70
2023-05-29T06:37:33.372Z,2.88
2023-05-29T06:40:36.029Z,2.60
2023-05-29T06:43:38.506Z,3.30
2023-05-29T06:46:45.076Z,2.70
2023-05-29T06:49:47.607Z,3.03
2023-05-29T06:52:50.118Z,3.03
2023-05-29T06:56:15.956Z,6.72
2023-05-29T06:59:21.675Z,3.70
2023-05-29T07:02:24.181Z,3.70
2023-05-29T07:05:32.139Z,3.20
2023-05-29T07:08:34.895Z,3.38
2023-05-29T07:11:38.151Z,3.30
2023-05-29T07:14:41.525Z,3.13
2023-05-29T07:17:44.117Z,3.47
2023-05-29T07:20:58.055Z,3.37
2023-05-29T07:24:02.229Z,3.35
2023-05-29T07:27:04.817Z,3.22
2023-05-29T07:30:08.886Z,4.53
2023-05-29T07:33:12.548Z,4.15
2023-05-29T07:36:17.500Z,3.20
2023-05-29T07:39:20.796Z,3.80
2023-05-29T07:42:23.264Z,3.83
2023-05-29T07:45:25.798Z,4.35
2023-05-29T07:48:28.782Z,3.05
2023-05-29T07:51:32.482Z,4.33
2023-05-29T07:54:35.232Z,3.95
2023-05-29T07:57:40.398Z,3.17
2023-05-29T08:00:45.518Z,4.15
2023-05-29T08:03:48.937Z,4.20
2023-05-29T08:07:06.693Z,3.80
2023-05-29T08:10:09.269Z,11.35
2023-05-29T08:13:11.683Z,3.23
2023-05-29T08:16:17.028Z,3.55
2023-05-29T08:19:19.525Z,3.75
2023-05-29T08:22:23.442Z,3.90
2023-05-29T08:25:26.127Z,3.72
2023-05-29T08:28:28.568Z,3.55
2023-05-29T08:31:31.575Z,3.85
2023-05-29T08:34:34.137Z,3.05
2023-05-29T08:37:36.722Z,3.40
2023-05-29T08:40:39.165Z,3.90
2023-05-29T08:43:42.524Z,3.20
2023-05-29T08:46:46.518Z,3.40
2023-05-29T08:49:54.312Z,3.08
2023-05-29T08:52:58.214Z,3.33
2023-05-29T08:56:02.488Z,4.63
2023-05-29T08:59:07.619Z,3.22
2023-05-29T09:02:12.674Z,3.92
2023-05-29T09:05:15.338Z,4.28
2023-05-29T09:08:18.299Z,3.88
2023-05-29T09:11:21.014Z,3.90
2023-05-29T09:14:37.502Z,3.47
2023-05-29T09:17:40.030Z,3.85
2023-05-29T09:20:42.477Z,4.00
2023-05-29T09:23:45.170Z,3.90
2023-05-29T09:26:51.191Z,3.83
2023-05-29T09:29:53.604Z,3.80
2023-05-29T09:32:56.063Z,3.95
2023-05-29T09:36:00.918Z,3.65
2023-05-29T09:39:13.897Z,3.97
2023-05-29T09:42:19.965Z,4.10
2023-05-29T09:45:23.188Z,4.22
2023-05-29T09:48:27.336Z,4.20
2023-05-29T09:51:30.059Z,4.30
2023-05-29T09:54:33.730Z,4.03
2023-05-29T09:57:36.810Z,3.85
2023-05-29T10:00:41.349Z,5.15
2023-05-29T10:03:43.962Z,4.50
2023-05-29T10:06:48.377Z,3.93
2023-05-29T10:09:56.589Z,4.95
2023-05-29T10:13:04.860Z,3.92
2023-05-29T10:16:13.849Z,4.47
2023-05-29T10:19:24.230Z,4.10
2023-05-29T10:22:28.549Z,4.47
2023-05-29T10:25:33.443Z,4.60
2023-05-29T10:28:41.452Z,4.45
2023-05-29T10:31:52.857Z,4.75
2023-05-29T10:35:17.131Z,4.40
2023-05-29T10:38:22.433Z,4.07
2023-05-29T10:41:27.702Z,4.43
2023-05-29T10:44:33.008Z,4.57
2023-05-29T10:47:35.460Z,5.00
2023-05-29T10:50:43.530Z,4.30
2023-05-29T10:53:47.603Z,3.95
2023-05-29T10:56:56.199Z,4.13
2023-05-29T11:00:00.645Z,4.32
2023-05-29T11:03:06.536Z,3.63
2023-05-29T11:06:20.957Z,3.95
2023-05-29T11:09:41.056Z,4.07
2023-05-29T11:13:00.467Z,4.40
2023-05-29T11:16:20.297Z,4.00
2023-05-29T11:19:23.608Z,4.10
2023-05-29T11:22:32.816Z,4.32
2023-05-29T11:25:37.759Z,4.30
2023-05-29T11:28:40.346Z,4.30
2023-05-29T11:31:44.770Z,4.28
2023-05-29T11:34:49.023Z,4.00
2023-05-29T11:37:51.718Z,4.03
2023-05-29T11:40:55.909Z,3.93
2023-05-29T11:44:03.461Z,4.40
2023-05-29T11:47:08.424Z,3.60
2023-05-29T11:50:25.407Z,4.20
2023-05-29T11:53:27.831Z,4.03
2023-05-29T11:56:31.297Z,3.30
2023-05-29T11:59:34.189Z,3.90
2023-05-29T12:02:39.625Z,3.53
2023-05-29T12:05:47.599Z,3.83
2023-05-29T12:08:52.421Z,3.97
2023-05-29T12:12:02.355Z,4.00
2023-05-29T12:15:06.755Z,4.17
2023-05-29T12:18:09.860Z,4.10
2023-05-29T12:21:12.407Z,4.30
2023-05-29T12:24:15.276Z,3.80
2023-05-29T12:27:17.773Z,4.03
2023-05-29T12:30:33.048Z,4.13
2023-05-29T12:33:36.305Z,4.00
2023-05-29T12:36:41.860Z,4.43
2023-05-29T12:39:44.238Z,3.92
2023-05-29T12:42:48.448Z,4.10
2023-05-29T12:46:00.252Z,4.18
2023-05-29T12:49:16.137Z,4.32
2023-05-29T12:52:21.663Z,3.80
2023-05-29T12:55:24.263Z,3.60
2023-05-29T12:58:26.906Z,4.10
2023-05-29T13:01:30.183Z,3.65
2023-05-29T13:04:32.584Z,4.00
2023-05-29T13:07:35.334Z,4.07
2023-05-29T13:10:37.877Z,3.67
2023-05-29T13:13:40.351Z,3.80
2023-05-29T13:16:42.790Z,3.70
2023-05-29T13:19:45.198Z,3.65
2023-05-29T13:22:49.849Z,3.70
2023-05-29T13:25:52.326Z,4.53
2023-05-29T13:28:54.813Z,3.88
2023-05-29T13:31:57.271Z,3.75
2023-05-29T13:35:00.045Z,3.90
2023-05-29T13:38:02.517Z,3.70
2023-05-29T13:41:04.970Z,4.10
2023-05-29T13:44:07.342Z,3.67
2023-05-29T13:47:09.769Z,3.73
2023-05-29T13:50:12.267Z,4.00
2023-05-29T13:53:15.403Z,3.70
2023-05-29T13:56:17.770Z,3.80
2023-05-29T13:59:20.142Z,4.18
2023-05-29T14:02:22.867Z,3.65
2023-05-29T14:05:25.652Z,3.72
2023-05-29T14:08:28.100Z,3.83
2023-05-29T14:11:30.489Z,3.83
2023-05-29T14:14:35.358Z,4.25
2023-05-29T14:17:37.818Z,4.07
2023-05-29T14:20:40.401Z,3.80
2023-05-29T14:23:42.807Z,3.75
2023-05-29T14:26:48.067Z,3.70
2023-05-29T14:29:50.736Z,4.18
2023-05-29T14:32:53.309Z,4.10
2023-05-29T14:35:55.963Z,3.75
2023-05-29T14:38:58.558Z,3.28
2023-05-29T14:42:01.485Z,3.85
2023-05-29T14:45:04.508Z,4.00
2023-05-29T14:48:07.289Z,3.97
2023-05-29T14:51:09.843Z,4.70
2023-05-29T14:54:12.942Z,3.92
2023-05-29T14:57:15.376Z,3.93
2023-05-29T15:00:19.730Z,3.58
2023-05-29T15:03:27.433Z,3.92
2023-05-29T15:06:30.196Z,4.35
2023-05-29T15:09:32.610Z,3.95
2023-05-29T15:12:34.980Z,4.00
2023-05-29T15:15:47.861Z,4.13
2023-05-29T15:18:50.982Z,4.50
2023-05-29T15:21:53.483Z,4.05
2023-05-29T15:24:56.699Z,4.30
2023-05-29T15:28:00.035Z,4.43
2023-05-29T15:31:02.997Z,4.07
2023-05-29T15:34:05.489Z,4.10
2023-05-29T15:37:07.892Z,4.20
2023-05-29T15:40:10.978Z,4.68
2023-05-29T15:43:13.388Z,4.07
2023-05-29T15:46:15.895Z,4.82
2023-05-29T15:49:18.277Z,4.23
2023-05-29T15:52:20.723Z,3.70
2023-05-29T15:55:26.416Z,3.92
2023-05-29T15:58:28.821Z,3.97
2023-05-29T16:01:31.238Z,4.18
2023-05-29T16:04:33.706Z,4.43
2023-05-29T16:07:36.811Z,4.00
2023-05-29T16:10:41.952Z,3.83
2023-05-29T16:13:44.423Z,4.00
2023-05-29T16:16:47.021Z,4.10
2023-05-29T16:19:49.453Z,4.50
2023-05-29T16:22:51.849Z,4.20
2023-05-29T16:25:54.473Z,3.80
2023-05-29T16:29:00.026Z,4.03
2023-05-29T16:32:02.490Z,4.30
2023-05-29T16:35:05.933Z,4.35
2023-05-29T16:38:08.312Z,3.95
2023-05-29T16:41:10.691Z,3.88
2023-05-29T16:44:13.110Z,4.18
2023-05-29T16:47:15.610Z,4.13
2023-05-29T16:50:18.181Z,4.10
2023-05-29T16:53:20.752Z,4.88
2023-05-29T16:56:23.170Z,4.13
2023-05-29T16:59:26.145Z,4.63
2023-05-29T17:02:28.597Z,4.63
2023-05-29T17:05:31.059Z,4.45
2023-05-29T17:08:33.552Z,4.28
2023-05-29T17:11:36.179Z,4.70
2023-05-29T17:14:38.608Z,4.57
2023-05-29T17:17:41.766Z,4.55
2023-05-29T17:20:44.321Z,4.30
2023-05-29T17:23:46.734Z,4.65
2023-05-29T17:26:49.130Z,3.97
2023-05-29T17:29:51.566Z,4.20
2023-05-29T17:32:54.034Z,4.53
2023-05-29T17:35:57.673Z,4.60
2023-05-29T17:39:00.245Z,4.03
2023-05-29T17:42:03.257Z,5.38
2023-05-29T17:45:07.636Z,5.82
2023-05-29T17:48:10.055Z,6.25
2023-05-29T17:51:12.474Z,5.73
2023-05-29T17:54:15.083Z,4.90
2023-05-29T17:57:17.940Z,4.88
2023-05-29T18:00:20.555Z,4.20
2023-05-29T18:03:23.040Z,5.32
2023-05-29T18:06:25.607Z,4.57
2023-05-29T18:09:28.648Z,4.95
2023-05-29T18:12:44.421Z,5.63
2023-05-29T18:15:48.219Z,5.20
2023-05-29T18:18:50.682Z,4.95
2023-05-29T18:21:53.063Z,4.93
2023-05-29T18:24:55.495Z,5.45
2023-05-29T18:27:57.868Z,4.60
2023-05-29T18:31:00.293Z,4.87
2023-05-29T18:34:04.938Z,5.22
2023-05-29T18:37:07.469Z,4.70
2023-05-29T18:40:10.628Z,4.90
2023-05-29T18:43:13.086Z,4.93
2023-05-29T18:46:15.597Z,4.57
2023-05-29T18:49:18.014Z,4.18
2023-05-29T18:52:21.442Z,4.23
2023-05-29T18:55:23.878Z,4.75
2023-05-29T18:58:26.392Z,4.38
2023-05-29T19:01:32.275Z,4.53
2023-05-29T19:04:35.414Z,4.53
2023-05-29T19:07:38.273Z,5.03
2023-05-29T19:10:43.420Z,4.65
2023-05-29T19:13:48.711Z,4.28
2023-05-29T19:16:51.221Z,3.97
2023-05-29T19:19:53.669Z,4.35
2023-05-29T19:22:56.440Z,4.10
2023-05-29T19:25:59.190Z,4.57
2023-05-29T19:29:01.985Z,4.32
2023-05-29T19:32:04.708Z,4.23
2023-05-29T19:35:09.137Z,3.95
2023-05-29T19:38:11.557Z,3.90
2023-05-29T19:41:14.045Z,4.43
2023-05-29T19:44:16.461Z,4.78
2023-05-29T19:47:18.950Z,4.68
2023-05-29T19:50:21.490Z,4.38
2023-05-29T19:53:23.870Z,4.10
2023-05-29T19:56:27.200Z,3.85
2023-05-29T19:59:29.805Z,4.25
2023-05-29T20:02:37.454Z,4.30
2023-05-29T20:05:39.995Z,4.13
2023-05-29T20:08:42.383Z,4.28
2023-05-29T20:11:44.848Z,4.80
2023-05-29T20:14:48.476Z,4.65
2023-05-29T20:17:50.868Z,5.18
2023-05-29T20:20:53.401Z,4.97
2023-05-29T20:23:55.876Z,5.50
2023-05-29T20:26:58.364Z,5.65
2023-05-29T20:30:03.814Z,4.22
2023-05-29T20:33:06.623Z,4.77
2023-05-29T20:36:09.284Z,4.20
2023-05-29T20:39:16.552Z,5.10
2023-05-29T20:42:22.795Z,4.80
2023-05-29T20:45:25.309Z,4.70
2023-05-29T20:48:27.681Z,5.03
2023-05-29T20:51:33.139Z,4.82
2023-05-29T20:54:35.541Z,4.40
2023-05-29T20:57:38.009Z,4.40
2023-05-29T21:00:41.634Z,4.57
2023-05-29T21:03:46.413Z,3.90
2023-05-29T21:06:49.445Z,3.97
2023-05-29T21:09:52.194Z,4.40
2023-05-29T21:12:54.758Z,4.90
2023-05-29T21:15:57.272Z,4.97
2023-05-29T21:18:59.728Z,4.68
2023-05-29T21:22:02.253Z,4.68
2023-05-29T21:25:05.036Z,4.43
2023-05-29T21:28:07.492Z,4.45
2023-05-29T21:31:09.974Z,4.18
2023-05-29T21:34:12.586Z,4.13
2023-05-29T21:37:15.074Z,4.13
2023-05-29T21:40:17.726Z,3.92
2023-05-29T21:43:20.163Z,3.85
2023-05-29T21:46:22.680Z,4.20
2023-05-29T21:49:25.238Z,4.07
2023-05-29T21:52:27.666Z,3.78
2023-05-29T21:55:30.141Z,3.97
2023-05-29T21:58:33.878Z,4.78
2023-05-29T22:01:36.429Z,4.10
2023-05-29T22:04:39.071Z,3.77
2023-05-29T22:07:41.609Z,4.03
2023-05-29T22:10:44.101Z,3.88
2023-05-29T22:13:46.755Z,4.15
2023-05-29T22:16:49.229Z,4.00
2023-05-29T22:19:52.449Z,3.78
2023-05-29T22:22:59.236Z,4.07
2023-05-29T22:26:11.617Z,4.10
2023-05-29T22:29:13.995Z,4.50
2023-05-29T22:32:16.420Z,4.18
2023-05-29T22:35:18.875Z,3.80
2023-05-29T22:38:21.837Z,4.57
2023-05-29T22:41:24.413Z,3.70
2023-05-29T22:44:27.393Z,4.35
2023-05-29T22:47:29.799Z,4.05
2023-05-29T22:50:32.875Z,4.63
2023-05-29T22:53:35.854Z,4.10
2023-05-29T22:56:38.505Z,3.90
2023-05-29T22:59:41.438Z,4.38
2023-05-29T23:02:48.008Z,4.13
2023-05-29T23:05:50.758Z,4.20
2023-05-29T23:08:53.146Z,4.00
2023-05-29T23:11:55.612Z,4.47
2023-05-29T23:14:58.050Z,4.13
2023-05-29T23:18:01.526Z,3.70
2023-05-29T23:21:04.136Z,4.72
2023-05-29T23:24:07.392Z,4.20
2023-05-29T23:27:10.733Z,4.17
2023-05-29T23:30:13.430Z,3.97
2023-05-29T23:33:15.797Z,4.63
2023-05-29T23:36:18.298Z,4.47
2023-05-29T23:39:20.666Z,4.13
2023-05-29T23:42:23.371Z,3.90
2023-05-29T23:45:26.466Z,4.18
2023-05-29T23:48:29.519Z,3.95
2023-05-29T23:51:32.407Z,3.67
2023-05-29T23:54:34.807Z,4.30
2023-05-29T23:57:37.211Z,3.97
